Airfield :
LOGIN :

Register | Disclaimer

   EN    FR    IT 

 










Legend :    VFR   Marginal VFR   IFR   Intensive IFR   Very Intensive IFR
Visi :
Ceiling :
>= 8 km
>= 3000ft
5 to 8 km
1000 to 3000 ft
1500m to 5 km
500 to 1000 ft
800 to 1500m
200 to 500 ft
< 800m
< 200 ft
Symbols :   Thunderstorms  Fog  Heavy snow  Heavy precipitations  Wind > 20 kt
SIGMETs :     Misc.  Thunderstorms  Icing  Turbulence  Mountain Waves  Volcanic Ashes






- Airport Elevation : 157 ft
- IATA code : LIL


LFQQ - Lille Lesquin

CURRENT METAR :
  • 110330Z AUTO 18011KT 9999 -RA SCT005/// SCT012/// BKN023/// ///TCU 07/06 Q1010 TEMPO OVC010

EXPIRED METARs :
  • 110300Z AUTO 18012KT 9999 -RA FEW006/// SCT019/// BKN041/// ///CB 07/06 Q1010 TEMPO OVC010
  • 110230Z AUTO 19013KT 9999 -RA BKN007/// BKN024/// BKN038/// ///TCU 07/06 Q1010 TEMPO OVC010
  • 110200Z AUTO 20014KT 9999 -RA BKN007/// BKN012/// OVC018/// ///TCU 07/06 Q1010 TEMPO OVC010
  • 110130Z AUTO 19017KT 9999 BKN011 OVC019 07/05 Q1010 TEMPO BKN040
  • 110100Z AUTO 18018KT 9999 BKN010 BKN015 OVC023 07/05 Q1010 BECMG BKN040

TAF AMD TAF LFQQ
Valid from the 11 at 03:00 until the 12 at 06:00 UTC


110330Z 1103/1206 19013KT 9999 BKN030
TEMPO 1103/1110 3000 RA BKN007 SCT030CB
TEMPO 1122/1124 3000 RA BKN013
ATIS : +33 3 20 16 19 54



MET'MAP, your aeronautical weather chart ! - Copyright ORBIFLY December 2007 - Disclaimer

ORBIFLY MET'MAP TEAM :

Programming & Development : Alexandra Zaïnal
Concept & original design : Baudouin d'Aumeries
Assistance for programming : Marc-Olivier Méhu
Technical & hardware support : Manuel Goepfert

Contact : metmap@orbifly.com




SOURCES & CREDITS :

   NOAA